createdAt,value
2018-09-12T00:02:44.456Z,6.25
2018-09-12T00:07:48.629Z,6.08
2018-09-12T00:12:53.823Z,7.03
2018-09-12T00:17:57.881Z,6.72
2018-09-12T00:23:02.017Z,6.40
2018-09-12T00:28:06.130Z,6.20
2018-09-12T00:33:10.201Z,6.72
2018-09-12T00:38:14.844Z,6.85
2018-09-12T00:43:18.927Z,6.62
2018-09-12T00:48:23.114Z,6.40
2018-09-12T00:53:27.151Z,6.75
2018-09-12T00:58:31.321Z,7.40
2018-09-12T01:03:35.789Z,6.75
2018-09-12T01:08:39.906Z,6.85
2018-09-12T01:13:43.992Z,6.33
2018-09-12T01:18:48.120Z,6.40
2018-09-12T01:23:52.241Z,6.05
2018-09-12T01:28:56.352Z,6.28
2018-09-12T01:34:00.589Z,6.12
2018-09-12T01:39:06.814Z,6.58
2018-09-12T01:44:10.949Z,6.08
2018-09-12T01:49:16.760Z,6.42
2018-09-12T01:54:20.877Z,6.30
2018-09-12T01:59:24.959Z,6.00
2018-09-12T02:04:29.053Z,6.10
2018-09-12T02:09:33.149Z,6.10
2018-09-12T02:14:37.371Z,6.45
2018-09-12T02:19:42.349Z,6.72
2018-09-12T02:24:46.492Z,6.03
2018-09-12T02:29:50.604Z,6.30
2018-09-12T02:34:54.846Z,6.25
2018-09-12T02:40:00.005Z,5.85
2018-09-12T02:45:05.033Z,5.95
2018-09-12T02:50:12.416Z,6.00
2018-09-12T02:55:16.667Z,6.75
2018-09-12T03:00:20.893Z,6.40
2018-09-12T03:05:24.964Z,6.30
2018-09-12T03:10:29.075Z,7.55
2018-09-12T03:15:33.232Z,6.20
2018-09-12T03:20:37.402Z,6.80
2018-09-12T03:25:41.457Z,6.05
2018-09-12T03:30:45.607Z,6.30
2018-09-12T03:35:50.045Z,6.22
2018-09-12T03:40:54.164Z,7.03
2018-09-12T03:45:58.239Z,6.20
2018-09-12T03:51:03.144Z,6.33
2018-09-12T03:56:07.170Z,6.55
2018-09-12T04:01:11.252Z,6.25
2018-09-12T04:06:15.334Z,5.95
2018-09-12T04:11:19.685Z,6.78
2018-09-12T04:16:23.860Z,6.20
2018-09-12T04:21:28.068Z,7.05
2018-09-12T04:26:32.250Z,7.22
2018-09-12T04:31:36.354Z,6.33
2018-09-12T04:36:43.399Z,6.75
2018-09-12T04:41:47.640Z,6.50
2018-09-12T04:46:58.310Z,6.78
2018-09-12T04:52:03.530Z,6.08
2018-09-12T04:57:08.267Z,6.65
2018-09-12T05:02:12.441Z,5.97
2018-09-12T05:07:16.551Z,7.10
2018-09-12T05:12:20.663Z,6.22
2018-09-12T05:17:25.140Z,6.78
2018-09-12T05:22:29.346Z,7.03
2018-09-12T05:27:34.084Z,6.80
2018-09-12T05:32:38.419Z,6.10
2018-09-12T05:37:42.539Z,5.83
2018-09-12T05:42:47.257Z,8.48
2018-09-12T05:47:51.456Z,6.92
2018-09-12T05:52:55.494Z,6.87
2018-09-12T05:58:00.156Z,6.75
2018-09-12T06:03:04.291Z,7.83
2018-09-12T06:08:09.007Z,6.42
2018-09-12T06:13:13.184Z,7.28
2018-09-12T06:18:17.290Z,6.37
2018-09-12T06:23:22.125Z,6.90
2018-09-12T06:28:26.460Z,6.42
2018-09-12T06:33:30.715Z,6.28
2018-09-12T06:38:34.936Z,7.22
2018-09-12T06:43:39.048Z,7.05
2018-09-12T06:48:43.144Z,6.47
2018-09-12T06:53:47.184Z,7.25
2018-09-12T06:58:51.436Z,7.15
2018-09-12T07:03:57.137Z,7.87
2018-09-12T07:09:02.800Z,6.80
2018-09-12T07:14:07.189Z,6.40
2018-09-12T07:19:11.370Z,7.62
2018-09-12T07:24:15.722Z,7.92
2018-09-12T07:29:19.823Z,8.13
2018-09-12T07:34:23.979Z,7.10
2018-09-12T07:39:28.174Z,8.90
2018-09-12T07:44:32.300Z,8.03
2018-09-12T07:49:36.393Z,8.70
2018-09-12T07:54:40.505Z,8.40
2018-09-12T07:59:44.624Z,7.90
2018-09-12T08:04:48.784Z,8.55
2018-09-12T08:09:53.486Z,8.30
2018-09-12T08:14:57.668Z,7.95
2018-09-12T08:20:01.799Z,8.45
2018-09-12T08:25:05.937Z,8.40
2018-09-12T08:30:10.327Z,9.80
2018-09-12T08:35:16.382Z,10.03
2018-09-12T08:40:20.584Z,10.10
2018-09-12T08:45:24.901Z,9.80
2018-09-12T08:50:28.982Z,9.18
2018-09-12T08:55:33.122Z,9.30
2018-09-12T09:00:37.204Z,9.15
2018-09-12T09:05:41.751Z,8.60
2018-09-12T09:10:45.840Z,9.18
2018-09-12T09:15:49.919Z,7.95
2018-09-12T09:20:54.151Z,7.90
2018-09-12T09:25:58.300Z,7.70
2018-09-12T09:31:02.414Z,8.60
2018-09-12T09:36:06.710Z,7.95
2018-09-12T09:41:11.093Z,6.62
2018-09-12T09:46:15.444Z,6.85
2018-09-12T09:51:19.857Z,7.42
2018-09-12T09:56:23.965Z,8.15
2018-09-12T10:01:33.893Z,7.47
2018-09-12T10:06:43.377Z,8.48
2018-09-12T10:11:47.658Z,7.60
2018-09-12T10:16:51.767Z,6.62
2018-09-12T10:21:56.462Z,6.92
2018-09-12T10:27:00.777Z,6.72
2018-09-12T10:32:05.917Z,8.15
2018-09-12T10:37:10.281Z,8.35
2018-09-12T10:42:14.402Z,8.25
2018-09-12T10:47:18.616Z,8.13
2018-09-12T10:52:22.769Z,8.35
2018-09-12T10:57:26.959Z,8.25
2018-09-12T11:02:31.157Z,7.95
2018-09-12T11:07:35.302Z,7.83
2018-09-12T11:12:40.018Z,7.50
2018-09-12T11:17:44.228Z,7.87
2018-09-12T11:22:48.314Z,7.35
2018-09-12T11:27:52.433Z,6.92
2018-09-12T11:32:57.648Z,5.83
2018-09-12T11:38:01.819Z,6.55
2018-09-12T11:43:06.410Z,6.25
2018-09-12T11:48:10.526Z,6.47
2018-09-12T11:53:14.629Z,5.80
2018-09-12T11:58:18.711Z,5.80
2018-09-12T12:03:23.025Z,6.00
2018-09-12T12:08:27.157Z,5.50
2018-09-12T12:13:31.243Z,5.42
2018-09-12T12:18:35.373Z,4.85
2018-09-12T12:23:39.615Z,4.80
2018-09-12T12:28:43.790Z,5.10
2018-09-12T12:33:48.536Z,5.05
2018-09-12T12:38:52.602Z,4.85
2018-09-12T12:43:56.672Z,4.62
2018-09-12T12:49:01.373Z,4.50
2018-09-12T12:54:05.613Z,4.90
2018-09-12T12:59:09.893Z,4.40
2018-09-12T13:04:13.927Z,5.28
2018-09-12T13:09:18.090Z,4.65
2018-09-12T13:14:22.197Z,5.55
2018-09-12T13:19:26.342Z,5.83
2018-09-12T13:24:30.504Z,4.95
2018-09-12T13:29:35.214Z,5.28
2018-09-12T13:34:39.389Z,5.67
2018-09-12T13:39:43.524Z,5.87
2018-09-12T13:44:47.581Z,5.33
2018-09-12T13:49:51.784Z,5.95
2018-09-12T13:54:55.915Z,6.28
2018-09-12T14:00:00.131Z,5.60
2018-09-12T14:05:04.694Z,5.37
2018-09-12T14:10:08.800Z,5.22
2018-09-12T14:15:12.888Z,4.87
2018-09-12T14:20:16.936Z,5.25
2018-09-12T14:25:21.498Z,5.00
2018-09-12T14:30:25.667Z,4.72
2018-09-12T14:35:29.710Z,5.28
2018-09-12T14:40:33.821Z,4.62
2018-09-12T14:45:37.855Z,4.70
2018-09-12T14:50:42.309Z,4.83
2018-09-12T14:55:46.432Z,4.50
2018-09-12T15:00:53.702Z,4.70
2018-09-12T15:05:57.851Z,4.80
2018-09-12T15:11:01.930Z,5.08
2018-09-12T15:16:06.158Z,4.90
2018-09-12T15:21:10.245Z,4.58
2018-09-12T15:26:14.319Z,5.55
2018-09-12T15:31:18.481Z,4.72
2018-09-12T15:36:22.588Z,4.40
2018-09-12T15:41:26.680Z,5.28
2018-09-12T15:46:32.015Z,5.22
2018-09-12T15:51:36.136Z,4.62
2018-09-12T15:56:41.289Z,6.00
2018-09-12T16:01:45.472Z,4.72
2018-09-12T16:06:50.011Z,4.75
2018-09-12T16:11:55.043Z,5.00
2018-09-12T16:16:59.244Z,4.60
2018-09-12T16:22:03.639Z,4.85
2018-09-12T16:27:07.859Z,4.05
2018-09-12T16:32:12.011Z,4.75
2018-09-12T16:37:16.307Z,5.37
2018-09-12T16:42:20.815Z,4.85
2018-09-12T16:47:25.173Z,4.50
2018-09-12T16:52:29.741Z,4.70
2018-09-12T16:57:34.049Z,4.72
2018-09-12T17:02:38.290Z,4.87
2018-09-12T17:07:42.704Z,4.95
2018-09-12T17:12:48.116Z,4.55
2018-09-12T17:17:53.049Z,6.15
2018-09-12T17:22:57.255Z,6.60
2018-09-12T17:28:01.463Z,5.20
2018-09-12T17:33:05.887Z,4.47
2018-09-12T17:38:10.131Z,4.75
2018-09-12T17:43:14.523Z,5.42
2018-09-12T17:48:18.690Z,4.95
2018-09-12T17:53:23.140Z,4.90
2018-09-12T17:58:27.985Z,4.87
2018-09-12T18:03:32.307Z,5.37
2018-09-12T18:08:37.237Z,4.92
2018-09-12T18:13:42.060Z,5.15
2018-09-12T18:18:46.231Z,5.70
2018-09-12T18:23:50.681Z,4.80
2018-09-12T18:28:54.983Z,4.62
2018-09-12T18:33:59.243Z,4.83
2018-09-12T18:39:08.722Z,4.50
2018-09-12T18:44:15.715Z,4.62
2018-09-12T18:49:20.001Z,4.33
2018-09-12T18:54:24.270Z,4.28
2018-09-12T18:59:28.485Z,4.70
2018-09-12T19:04:51.096Z,4.78
2018-09-12T19:09:55.376Z,4.92
2018-09-12T19:15:01.574Z,5.15
2018-09-12T19:20:05.930Z,4.67
2018-09-12T19:25:10.361Z,4.20
2018-09-12T19:30:14.462Z,4.70
2018-09-12T19:35:19.217Z,4.22
2018-09-12T19:40:23.535Z,4.42
2018-09-12T19:45:29.030Z,4.85
2018-09-12T19:50:33.298Z,4.33
2018-09-12T19:55:37.524Z,4.42
2018-09-12T20:00:41.769Z,4.25
2018-09-12T20:05:46.071Z,4.60
2018-09-12T20:10:50.206Z,4.00
2018-09-12T20:15:55.365Z,3.70
2018-09-12T20:20:59.453Z,4.50
2018-09-12T20:26:03.590Z,4.50
2018-09-12T20:31:08.403Z,4.40
2018-09-12T20:36:12.746Z,4.53
2018-09-12T20:41:17.387Z,4.75
2018-09-12T20:46:21.443Z,4.67
2018-09-12T20:51:25.631Z,4.58
2018-09-12T20:56:29.681Z,5.12
2018-09-12T21:01:33.818Z,4.65
2018-09-12T21:06:38.212Z,4.58
2018-09-12T21:11:42.306Z,4.90
2018-09-12T21:16:46.961Z,5.00
2018-09-12T21:21:51.381Z,5.08
2018-09-12T21:26:55.973Z,5.05
2018-09-12T21:32:00.245Z,4.83
2018-09-12T21:37:04.494Z,5.05
2018-09-12T21:42:08.700Z,5.67
2018-09-12T21:47:13.278Z,5.10
2018-09-12T21:52:18.144Z,4.55
2018-09-12T21:57:22.189Z,3.72
2018-09-12T22:02:26.473Z,4.12
2018-09-12T22:07:30.799Z,4.15
2018-09-12T22:12:34.948Z,3.60
2018-09-12T22:17:39.108Z,4.40
2018-09-12T22:22:43.270Z,4.03
2018-09-12T22:27:47.391Z,4.22
2018-09-12T22:32:51.502Z,4.15
2018-09-12T22:37:56.072Z,4.10
2018-09-12T22:43:00.247Z,3.77
2018-09-12T22:48:04.306Z,3.77
2018-09-12T22:53:09.656Z,3.50
2018-09-12T22:58:13.756Z,3.72
2018-09-12T23:03:18.029Z,4.25
2018-09-12T23:08:22.867Z,3.70
2018-09-12T23:13:27.001Z,3.77
2018-09-12T23:18:31.104Z,4.25
2018-09-12T23:23:36.804Z,5.30
2018-09-12T23:28:40.936Z,4.78
2018-09-12T23:33:45.022Z,4.70
2018-09-12T23:38:49.277Z,5.22
2018-09-12T23:43:53.534Z,5.17
2018-09-12T23:48:57.761Z,4.92
2018-09-12T23:54:02.084Z,5.62
2018-09-12T23:59:07.178Z,6.10
